createdAt,value
2019-02-06T00:02:56.477Z,48.93
2019-02-06T00:06:00.746Z,46.43
2019-02-06T00:09:11.254Z,45.03
2019-02-06T00:12:15.172Z,46.53
2019-02-06T00:15:19.127Z,45.47
2019-02-06T00:18:23.048Z,44.87
2019-02-06T00:21:26.869Z,42.13
2019-02-06T00:24:31.070Z,41.57
2019-02-06T00:27:34.960Z,44.07
2019-02-06T00:30:38.849Z,42.63
2019-02-06T00:33:43.015Z,44.60
2019-02-06T00:36:46.821Z,43.23
2019-02-06T00:39:50.634Z,43.80
2019-02-06T00:42:54.730Z,43.03
2019-02-06T00:45:58.618Z,41.10
2019-02-06T00:49:02.437Z,42.57
2019-02-06T00:52:06.412Z,41.03
2019-02-06T00:55:10.975Z,40.57
2019-02-06T00:58:14.893Z,39.73
2019-02-06T01:01:19.138Z,38.80
2019-02-06T01:04:23.129Z,37.30
2019-02-06T01:07:26.931Z,37.87
2019-02-06T01:10:31.018Z,36.90
2019-02-06T01:13:34.884Z,38.70
2019-02-06T01:16:38.810Z,37.20
2019-02-06T01:19:43.443Z,37.90
2019-02-06T01:22:47.403Z,37.50
2019-02-06T01:25:51.275Z,36.57
2019-02-06T01:28:55.402Z,36.27
2019-02-06T01:31:59.347Z,37.47
2019-02-06T01:35:03.224Z,38.10
2019-02-06T01:38:07.464Z,37.93
2019-02-06T01:41:11.457Z,38.63
2019-02-06T01:44:15.262Z,39.10
2019-02-06T01:47:19.079Z,38.93
2019-02-06T01:50:23.013Z,35.87
2019-02-06T01:53:26.983Z,35.73
2019-02-06T01:56:30.977Z,35.70
2019-02-06T01:59:34.943Z,35.93
2019-02-06T02:02:38.820Z,36.93
2019-02-06T02:05:42.618Z,36.87
2019-02-06T02:08:57.061Z,35.47
2019-02-06T02:12:00.998Z,37.43
2019-02-06T02:15:07.086Z,35.70
2019-02-06T02:18:10.958Z,34.50
2019-02-06T02:21:14.878Z,35.37
2019-02-06T02:24:18.748Z,34.40
2019-02-06T02:27:22.580Z,36.23
2019-02-06T02:30:34.594Z,33.00
2019-02-06T02:33:38.492Z,34.50
2019-02-06T02:36:42.362Z,33.47
2019-02-06T02:39:46.368Z,35.13
2019-02-06T02:42:50.284Z,33.57
2019-02-06T02:45:54.358Z,34.63
2019-02-06T02:48:58.282Z,36.10
2019-02-06T02:52:02.068Z,35.20
2019-02-06T02:55:06.755Z,33.37
2019-02-06T02:58:10.810Z,33.80
2019-02-06T03:01:35.861Z,34.43
2019-02-06T03:04:43.940Z,33.77
2019-02-06T03:07:47.837Z,34.93
2019-02-06T03:10:51.653Z,34.77
2019-02-06T03:13:55.546Z,32.40
2019-02-06T03:17:03.057Z,32.77
2019-02-06T03:20:06.245Z,35.40
2019-02-06T03:23:10.219Z,33.30
2019-02-06T03:26:14.160Z,34.17
2019-02-06T03:29:18.077Z,31.80
2019-02-06T03:32:21.891Z,32.53
2019-02-06T03:35:25.702Z,33.57
2019-02-06T03:38:29.513Z,32.27
2019-02-06T03:41:33.331Z,32.60
2019-02-06T03:44:37.228Z,33.03
2019-02-06T03:47:41.211Z,32.10
2019-02-06T03:50:45.093Z,33.50
2019-02-06T03:53:48.981Z,33.33
2019-02-06T03:56:52.790Z,33.47
2019-02-06T03:59:56.613Z,33.50
2019-02-06T04:03:00.502Z,33.70
2019-02-06T04:06:04.504Z,32.67
2019-02-06T04:09:09.318Z,33.87
2019-02-06T04:12:13.215Z,34.00
2019-02-06T04:15:17.107Z,35.00
2019-02-06T04:18:20.916Z,35.50
2019-02-06T04:21:24.789Z,32.70
2019-02-06T04:24:28.648Z,33.60
2019-02-06T04:27:32.454Z,32.60
2019-02-06T04:30:36.479Z,33.23
2019-02-06T04:33:40.275Z,33.30
2019-02-06T04:36:44.136Z,33.47
2019-02-06T04:39:48.005Z,33.67
2019-02-06T04:42:51.815Z,34.40
2019-02-06T04:45:55.652Z,33.73
2019-02-06T04:48:59.526Z,32.53
2019-02-06T04:52:03.358Z,33.60
2019-02-06T04:55:07.858Z,33.90
2019-02-06T04:58:11.758Z,33.10
2019-02-06T05:01:15.578Z,34.37
2019-02-06T05:04:19.389Z,36.37
2019-02-06T05:07:23.303Z,35.87
2019-02-06T05:10:27.161Z,37.87
2019-02-06T05:13:30.976Z,36.13
2019-02-06T05:16:34.847Z,37.90
2019-02-06T05:19:38.667Z,38.60
2019-02-06T05:22:42.460Z,38.90
2019-02-06T05:25:46.342Z,39.17
2019-02-06T05:28:50.252Z,37.43
2019-02-06T05:31:54.173Z,38.73
2019-02-06T05:34:57.971Z,40.23
2019-02-06T05:38:01.958Z,38.13
2019-02-06T05:41:05.961Z,39.23
2019-02-06T05:44:09.844Z,38.63
2019-02-06T05:47:13.667Z,41.63
2019-02-06T05:50:17.816Z,41.97
2019-02-06T05:53:21.699Z,40.83
2019-02-06T05:56:25.575Z,41.43
2019-02-06T05:59:29.854Z,41.97
2019-02-06T06:02:33.819Z,44.63
2019-02-06T06:05:37.730Z,41.80
2019-02-06T06:08:41.916Z,41.97
2019-02-06T06:11:45.883Z,45.37
2019-02-06T06:14:49.701Z,44.30
2019-02-06T06:17:53.524Z,43.77
2019-02-06T06:20:57.429Z,44.20
2019-02-06T06:24:01.355Z,44.43
2019-02-06T06:27:05.325Z,43.00
2019-02-06T06:30:11.495Z,42.40
2019-02-06T06:33:15.292Z,42.63
2019-02-06T06:36:19.092Z,43.33
2019-02-06T06:39:22.904Z,43.67
2019-02-06T06:42:26.725Z,45.13
2019-02-06T06:45:30.618Z,42.23
2019-02-06T06:48:34.791Z,44.97
2019-02-06T06:51:38.655Z,42.80
2019-02-06T06:54:42.460Z,44.17
2019-02-06T06:57:46.292Z,41.70
2019-02-06T07:00:50.210Z,43.63
2019-02-06T07:03:54.021Z,43.90
2019-02-06T07:06:57.913Z,41.10
2019-02-06T07:10:01.786Z,39.50
2019-02-06T07:13:05.757Z,42.10
2019-02-06T07:16:09.703Z,43.57
2019-02-06T07:19:13.505Z,40.27
2019-02-06T07:22:17.463Z,42.50
2019-02-06T07:25:21.417Z,40.07
2019-02-06T07:28:25.242Z,42.07
2019-02-06T07:31:29.063Z,38.97
2019-02-06T07:34:32.867Z,41.90
2019-02-06T07:37:36.843Z,40.10
2019-02-06T07:40:40.632Z,38.97
2019-02-06T07:43:44.529Z,40.33
2019-02-06T07:46:48.434Z,40.17
2019-02-06T07:49:52.322Z,37.73
2019-02-06T07:52:56.313Z,39.60
2019-02-06T07:56:00.208Z,40.40
2019-02-06T07:59:04.139Z,38.57
2019-02-06T08:02:08.119Z,38.83
2019-02-06T08:05:14.070Z,37.77
2019-02-06T08:08:17.975Z,38.17
2019-02-06T08:11:21.765Z,39.63
2019-02-06T08:14:25.686Z,38.13
2019-02-06T08:17:29.557Z,38.43
2019-02-06T08:20:33.450Z,37.20
2019-02-06T08:23:37.262Z,37.30
2019-02-06T08:26:41.103Z,38.70
2019-02-06T08:29:44.904Z,40.40
2019-02-06T08:32:48.836Z,39.03
2019-02-06T08:35:52.726Z,39.00
2019-02-06T08:38:56.553Z,38.37
2019-02-06T08:42:00.475Z,38.07
2019-02-06T08:45:05.120Z,39.40
2019-02-06T08:48:09.034Z,36.80
2019-02-06T08:51:12.836Z,39.30
2019-02-06T08:54:16.673Z,37.60
2019-02-06T08:57:20.559Z,37.13
2019-02-06T09:00:27.217Z,39.50
2019-02-06T09:03:31.118Z,39.30
2019-02-06T09:06:35.029Z,37.73
2019-02-06T09:09:38.834Z,38.43
2019-02-06T09:12:42.734Z,38.57
2019-02-06T09:15:46.584Z,34.17
2019-02-06T09:18:50.493Z,36.93
2019-02-06T09:21:54.363Z,37.53
2019-02-06T09:24:58.128Z,36.47
2019-02-06T09:28:02.022Z,37.47
2019-02-06T09:31:05.983Z,36.20
2019-02-06T09:34:09.964Z,35.27
2019-02-06T09:37:13.850Z,35.73
2019-02-06T09:40:19.486Z,35.73
2019-02-06T09:43:23.327Z,31.47
2019-02-06T09:46:27.127Z,33.43
2019-02-06T09:49:30.945Z,31.73
2019-02-06T09:52:34.831Z,33.27
2019-02-06T09:55:38.908Z,32.90
2019-02-06T09:58:42.787Z,34.47
2019-02-06T10:01:46.795Z,33.50
2019-02-06T10:04:50.867Z,32.17
2019-02-06T10:07:54.845Z,32.03
2019-02-06T10:10:58.680Z,31.63
2019-02-06T10:14:02.643Z,30.97
2019-02-06T10:17:06.562Z,30.37
2019-02-06T10:20:13.288Z,31.20
2019-02-06T10:23:17.241Z,31.60
2019-02-06T10:26:21.027Z,29.90
2019-02-06T10:29:24.864Z,29.07
2019-02-06T10:32:28.674Z,29.80
2019-02-06T10:35:32.580Z,30.13
2019-02-06T10:38:36.478Z,29.47
2019-02-06T10:41:40.442Z,29.57
2019-02-06T10:44:44.424Z,27.30
2019-02-06T10:47:48.622Z,26.57
2019-02-06T10:50:53.834Z,25.43
2019-02-06T10:53:57.705Z,24.50
2019-02-06T10:57:01.520Z,24.33
2019-02-06T11:00:12.305Z,25.50
2019-02-06T11:03:16.208Z,22.50
2019-02-06T11:06:20.106Z,21.70
2019-02-06T11:09:23.991Z,22.33
2019-02-06T11:12:27.812Z,25.37
2019-02-06T11:15:31.900Z,24.33
2019-02-06T11:18:35.859Z,25.10
2019-02-06T11:21:39.824Z,19.70
2019-02-06T11:24:43.630Z,24.37
2019-02-06T11:27:47.564Z,23.97
2019-02-06T11:30:51.542Z,23.37
2019-02-06T11:33:55.432Z,23.97
2019-02-06T11:36:59.327Z,23.60
2019-02-06T11:40:03.226Z,23.60
2019-02-06T11:43:07.364Z,22.47
2019-02-06T11:46:11.227Z,20.43
2019-02-06T11:49:16.153Z,19.93
2019-02-06T11:52:19.980Z,19.17
2019-02-06T11:55:24.699Z,20.13
2019-02-06T11:58:28.645Z,16.30
2019-02-06T12:01:36.460Z,18.73
2019-02-06T12:04:40.343Z,17.57
2019-02-06T12:07:44.312Z,16.33
2019-02-06T12:10:48.479Z,16.97
2019-02-06T12:13:52.423Z,15.57
2019-02-06T12:16:56.322Z,16.63
2019-02-06T12:20:00.184Z,15.03
2019-02-06T12:23:04.405Z,15.70
2019-02-06T12:26:08.388Z,15.67
2019-02-06T12:29:12.281Z,15.90
2019-02-06T12:32:16.185Z,13.77
2019-02-06T12:35:20.036Z,12.57
2019-02-06T12:38:23.922Z,14.50
2019-02-06T12:41:27.758Z,13.87
2019-02-06T12:44:32.630Z,13.33
2019-02-06T12:47:36.455Z,14.57
2019-02-06T12:50:40.398Z,14.20
2019-02-06T12:53:44.345Z,12.87
2019-02-06T12:56:48.218Z,12.00
2019-02-06T12:59:52.024Z,10.43
2019-02-06T13:02:59.651Z,7.70
2019-02-06T13:06:01.559Z,8.50
2019-02-06T13:09:08.759Z,9.40
2019-02-06T13:12:12.573Z,9.63
2019-02-06T13:15:16.718Z,7.70
2019-02-06T13:18:20.567Z,9.87
2019-02-06T13:21:24.364Z,9.03
2019-02-06T13:24:28.252Z,9.93
2019-02-06T13:27:32.055Z,9.60
2019-02-06T13:30:36.633Z,8.10
2019-02-06T13:33:40.502Z,8.73
2019-02-06T13:36:44.331Z,8.33
2019-02-06T13:39:48.208Z,10.70
2019-02-06T13:42:52.228Z,10.07
2019-02-06T13:45:56.017Z,7.83
2019-02-06T13:48:59.905Z,8.43
2019-02-06T13:52:03.968Z,8.27
2019-02-06T13:55:09.627Z,8.43
2019-02-06T13:58:20.146Z,7.70
2019-02-06T14:01:25.811Z,9.37
2019-02-06T14:04:24.717Z,10.83
2019-02-06T14:07:28.682Z,9.53
2019-02-06T14:10:32.719Z,10.30
2019-02-06T14:13:36.986Z,10.27
2019-02-06T14:16:40.781Z,10.40
2019-02-06T14:19:44.734Z,10.90
2019-02-06T14:22:55.517Z,9.17
2019-02-06T14:26:20.661Z,9.77
2019-02-06T14:29:49.051Z,10.60
2019-02-06T14:33:55.586Z,9.13
2019-02-06T14:37:27.771Z,8.77
2019-02-06T14:41:08.304Z,9.30
2019-02-06T14:44:39.746Z,7.90
2019-02-06T14:48:10.685Z,7.87
2019-02-06T14:52:00.125Z,7.43
2019-02-06T14:55:17.659Z,8.53
2019-02-06T14:59:06.211Z,8.43
2019-02-06T15:02:53.255Z,9.37
2019-02-06T15:06:09.157Z,11.67
2019-02-06T15:09:55.781Z,9.67
2019-02-06T15:13:34.560Z,9.37
2019-02-06T15:17:21.533Z,11.60
2019-02-06T15:21:18.218Z,11.43
2019-02-06T15:24:40.156Z,12.20
2019-02-06T15:28:25.635Z,14.80
2019-02-06T15:32:02.812Z,15.33
2019-02-06T15:35:32.630Z,14.83
2019-02-06T15:38:46.893Z,16.47
2019-02-06T15:42:31.128Z,14.57
2019-02-06T15:45:58.012Z,17.77
2019-02-06T15:49:10.956Z,19.17
2019-02-06T15:53:05.307Z,21.50
2019-02-06T15:56:56.140Z,19.27
2019-02-06T16:00:19.188Z,21.07
2019-02-06T16:04:15.243Z,20.30
2019-02-06T16:07:50.478Z,25.80
2019-02-06T16:11:41.655Z,27.63
2019-02-06T16:15:07.616Z,23.80
2019-02-06T16:18:35.230Z,25.13
2019-02-06T16:22:44.679Z,25.03
2019-02-06T16:25:59.620Z,24.43
2019-02-06T16:29:38.914Z,27.33
2019-02-06T16:33:16.959Z,22.60
2019-02-06T16:36:43.523Z,23.00
2019-02-06T16:40:14.281Z,30.83
2019-02-06T16:43:38.004Z,25.40
2019-02-06T16:47:32.466Z,26.87
2019-02-06T16:50:57.110Z,31.83
2019-02-06T16:54:38.053Z,25.93
2019-02-06T16:58:23.257Z,26.87
2019-02-06T17:01:43.891Z,26.47
2019-02-06T17:05:31.262Z,23.10
2019-02-06T17:09:15.602Z,27.30
2019-02-06T17:12:31.974Z,25.00
2019-02-06T17:16:08.853Z,26.67
2019-02-06T17:19:56.749Z,26.73
2019-02-06T17:23:29.970Z,30.10
2019-02-06T17:26:53.563Z,28.67
2019-02-06T17:30:29.578Z,25.13
2019-02-06T17:34:00.107Z,27.17
2019-02-06T17:37:35.106Z,28.20
2019-02-06T17:41:00.186Z,27.13
2019-02-06T17:44:33.828Z,28.50
2019-02-06T17:48:10.065Z,27.90
2019-02-06T17:52:04.626Z,31.73
2019-02-06T17:55:19.405Z,26.27
2019-02-06T17:58:23.349Z,24.17
2019-02-06T18:01:37.032Z,24.37
2019-02-06T18:04:43.651Z,25.90
2019-02-06T18:07:47.531Z,28.10
2019-02-06T18:10:51.432Z,25.10
2019-02-06T18:13:55.330Z,25.83
2019-02-06T18:16:59.884Z,25.47
2019-02-06T18:20:05.242Z,30.50
2019-02-06T18:23:09.120Z,27.13
2019-02-06T18:26:13.085Z,27.70
2019-02-06T18:29:17.038Z,24.57
2019-02-06T18:32:21.012Z,24.70
2019-02-06T18:35:24.897Z,24.37
2019-02-06T18:38:28.712Z,23.90
2019-02-06T18:41:32.598Z,25.23
2019-02-06T18:44:36.434Z,24.20
2019-02-06T18:47:40.319Z,27.37
2019-02-06T18:50:44.313Z,24.17
2019-02-06T18:53:48.688Z,23.30
2019-02-06T18:56:52.606Z,23.23
2019-02-06T18:59:56.499Z,25.20
2019-02-06T19:03:00.570Z,25.07
2019-02-06T19:06:04.593Z,33.77
2019-02-06T19:09:13.841Z,25.03
2019-02-06T19:12:17.913Z,22.07
2019-02-06T19:15:21.820Z,28.47
2019-02-06T19:18:26.083Z,26.27
2019-02-06T19:21:29.983Z,24.17
2019-02-06T19:24:33.787Z,23.97
2019-02-06T19:27:38.036Z,24.80
2019-02-06T19:30:41.882Z,29.07
2019-02-06T19:33:45.704Z,27.00
2019-02-06T19:36:49.583Z,27.67
2019-02-06T19:39:53.525Z,28.80
2019-02-06T19:43:00.413Z,27.70
2019-02-06T19:46:03.077Z,28.63
2019-02-06T19:49:06.894Z,27.63
2019-02-06T19:52:10.826Z,31.93
2019-02-06T19:55:14.817Z,29.80
2019-02-06T19:58:18.637Z,27.93
2019-02-06T20:01:22.994Z,27.30
2019-02-06T20:04:26.838Z,29.00
2019-02-06T20:07:30.747Z,28.30
2019-02-06T20:10:37.210Z,29.97
2019-02-06T20:13:41.039Z,26.27
2019-02-06T20:16:44.850Z,26.07
2019-02-06T20:19:48.739Z,29.37
2019-02-06T20:22:52.675Z,28.53
2019-02-06T20:25:59.877Z,27.60
2019-02-06T20:29:04.346Z,27.90
2019-02-06T20:32:08.774Z,31.47
2019-02-06T20:35:13.889Z,27.27
2019-02-06T20:38:17.896Z,27.70
2019-02-06T20:41:21.940Z,28.37
2019-02-06T20:44:26.041Z,27.57
2019-02-06T20:47:29.818Z,27.60
2019-02-06T20:50:34.551Z,29.27
2019-02-06T20:53:38.777Z,29.37
2019-02-06T20:56:42.949Z,29.90
2019-02-06T20:59:47.107Z,30.27
2019-02-06T21:02:51.496Z,30.90
2019-02-06T21:05:55.333Z,31.13
2019-02-06T21:08:59.218Z,30.83
2019-02-06T21:12:03.572Z,29.43
2019-02-06T21:15:07.677Z,29.43
2019-02-06T21:18:11.508Z,27.13
2019-02-06T21:21:15.876Z,32.00
2019-02-06T21:24:20.014Z,30.17
2019-02-06T21:27:23.902Z,29.13
2019-02-06T21:30:31.534Z,30.80
2019-02-06T21:33:35.408Z,27.80
2019-02-06T21:36:39.247Z,29.63
2019-02-06T21:39:43.750Z,30.77
2019-02-06T21:42:47.929Z,33.63
2019-02-06T21:45:52.039Z,33.63
2019-02-06T21:48:56.342Z,31.00
2019-02-06T21:52:00.152Z,31.87
2019-02-06T21:55:04.663Z,34.47
2019-02-06T21:58:09.116Z,32.13
2019-02-06T22:01:12.933Z,34.57
2019-02-06T22:04:19.138Z,31.57
2019-02-06T22:07:22.954Z,33.80
2019-02-06T22:10:29.403Z,34.30
2019-02-06T22:13:33.213Z,32.93
2019-02-06T22:16:37.045Z,36.17
2019-02-06T22:19:41.093Z,34.00
2019-02-06T22:22:45.087Z,33.47
2019-02-06T22:25:48.904Z,34.27
2019-02-06T22:28:53.524Z,33.47
2019-02-06T22:31:57.344Z,33.70
2019-02-06T22:35:01.173Z,36.27
2019-02-06T22:38:05.332Z,33.10
2019-02-06T22:41:10.234Z,37.13
2019-02-06T22:44:14.133Z,35.60
2019-02-06T22:47:18.998Z,35.57
2019-02-06T22:50:24.534Z,36.47
2019-02-06T22:53:28.443Z,37.57
2019-02-06T22:56:32.362Z,38.87
2019-02-06T22:59:36.243Z,37.70
2019-02-06T23:02:40.060Z,37.83
2019-02-06T23:05:43.894Z,38.50
2019-02-06T23:08:47.848Z,36.23
2019-02-06T23:11:51.770Z,35.33
2019-02-06T23:14:55.584Z,37.47
2019-02-06T23:17:59.496Z,36.53
2019-02-06T23:21:03.461Z,38.30
2019-02-06T23:24:07.455Z,39.73
2019-02-06T23:27:11.374Z,42.73
2019-02-06T23:30:15.346Z,40.27
2019-02-06T23:33:19.498Z,43.90
2019-02-06T23:36:23.403Z,39.60
2019-02-06T23:39:27.309Z,45.23
2019-02-06T23:42:31.499Z,40.50
2019-02-06T23:45:35.487Z,39.43
2019-02-06T23:48:39.437Z,48.20
2019-02-06T23:51:43.633Z,42.17
2019-02-06T23:54:47.482Z,45.43
2019-02-06T23:57:51.360Z,39.80
